createdAt,value
2019-03-16T00:00:48.035Z,65
2019-03-16T00:01:58.460Z,65
2019-03-16T00:03:00.499Z,65
2019-03-16T00:04:02.970Z,65
2019-03-16T00:05:04.999Z,65
2019-03-16T00:06:07.043Z,65
2019-03-16T00:07:09.062Z,64
2019-03-16T00:08:11.093Z,64
2019-03-16T00:09:13.128Z,65
2019-03-16T00:10:15.159Z,64
2019-03-16T00:11:17.586Z,64
2019-03-16T00:12:19.617Z,64
2019-03-16T00:13:21.709Z,64
2019-03-16T00:14:23.722Z,65
2019-03-16T00:15:25.766Z,65
2019-03-16T00:16:28.097Z,65
2019-03-16T00:17:30.120Z,65
2019-03-16T00:18:32.734Z,65
2019-03-16T00:19:34.765Z,65
2019-03-16T00:20:37.127Z,65
2019-03-16T00:21:39.162Z,65
2019-03-16T00:22:41.195Z,65
2019-03-16T00:23:43.232Z,65
2019-03-16T00:24:45.283Z,65
2019-03-16T00:25:47.348Z,65
2019-03-16T00:26:49.761Z,66
2019-03-16T00:27:52.209Z,66
2019-03-16T00:28:54.255Z,66
2019-03-16T00:29:56.281Z,65
2019-03-16T00:30:58.333Z,66
2019-03-16T00:32:14.591Z,65
2019-03-16T00:33:17.005Z,65
2019-03-16T00:34:20.089Z,65
2019-03-16T00:35:22.108Z,66
2019-03-16T00:36:24.146Z,66
2019-03-16T00:37:26.182Z,66
2019-03-16T00:38:28.216Z,66
2019-03-16T00:39:30.534Z,66
2019-03-16T00:40:32.641Z,66
2019-03-16T00:41:34.664Z,65
2019-03-16T00:42:36.799Z,65
2019-03-16T00:43:38.845Z,66
2019-03-16T00:44:40.873Z,65
2019-03-16T00:45:42.958Z,66
2019-03-16T00:46:44.985Z,66
2019-03-16T00:47:47.415Z,66
2019-03-16T00:48:49.437Z,66
2019-03-16T00:49:51.479Z,66
2019-03-16T00:50:53.532Z,66
2019-03-16T00:51:55.891Z,66
2019-03-16T00:52:57.984Z,66
2019-03-16T00:54:00.692Z,66
2019-03-16T00:55:02.725Z,68
2019-03-16T00:56:04.755Z,70
2019-03-16T00:57:07.182Z,72
2019-03-16T00:58:09.206Z,74
2019-03-16T00:59:11.638Z,76
2019-03-16T01:00:13.952Z,76
2019-03-16T01:01:15.973Z,76
2019-03-16T01:02:28.372Z,76
2019-03-16T01:03:30.407Z,76
2019-03-16T01:04:32.738Z,77
2019-03-16T01:05:34.773Z,78
2019-03-16T01:06:37.081Z,79
2019-03-16T01:07:39.117Z,79
2019-03-16T01:08:41.137Z,79
2019-03-16T01:09:44.670Z,79
2019-03-16T01:10:46.703Z,79
2019-03-16T01:11:48.757Z,80
2019-03-16T01:12:50.777Z,80
2019-03-16T01:13:52.812Z,79
2019-03-16T01:14:54.897Z,79
2019-03-16T01:15:56.938Z,78
2019-03-16T01:16:59.370Z,79
2019-03-16T01:18:01.394Z,79
2019-03-16T01:19:03.819Z,79
2019-03-16T01:20:05.846Z,79
2019-03-16T01:21:07.888Z,78
2019-03-16T01:22:09.909Z,78
2019-03-16T01:23:12.033Z,78
2019-03-16T01:24:14.064Z,78
2019-03-16T01:25:16.358Z,79
2019-03-16T01:26:18.394Z,79
2019-03-16T01:27:20.421Z,79
2019-03-16T01:28:22.526Z,79
2019-03-16T01:29:24.833Z,80
2019-03-16T01:30:26.873Z,79
2019-03-16T01:31:29.287Z,80
2019-03-16T01:32:42.096Z,80
2019-03-16T01:33:44.128Z,77
2019-03-16T01:34:46.170Z,77
2019-03-16T01:35:48.203Z,79
2019-03-16T01:36:50.253Z,77
2019-03-16T01:37:52.300Z,78
2019-03-16T01:38:54.333Z,78
2019-03-16T01:39:56.366Z,77
2019-03-16T01:40:58.494Z,76
2019-03-16T01:42:00.857Z,76
2019-03-16T01:43:02.901Z,76
2019-03-16T01:44:04.932Z,75
2019-03-16T01:45:06.972Z,76
2019-03-16T01:46:09.279Z,75
2019-03-16T01:47:11.364Z,75
2019-03-16T01:48:13.452Z,75
2019-03-16T01:49:15.477Z,75
2019-03-16T01:50:17.526Z,74
2019-03-16T01:51:19.857Z,74
2019-03-16T01:52:22.278Z,74
2019-03-16T01:53:24.309Z,74
2019-03-16T01:54:26.440Z,75
2019-03-16T01:55:28.456Z,74
2019-03-16T01:56:30.488Z,73
2019-03-16T01:57:32.520Z,74
2019-03-16T01:58:34.541Z,74
2019-03-16T01:59:36.585Z,73
2019-03-16T02:00:38.630Z,73
2019-03-16T02:01:40.752Z,73
2019-03-16T02:02:56.639Z,74
2019-03-16T02:03:58.673Z,73
2019-03-16T02:05:01.256Z,73
2019-03-16T02:06:03.371Z,73
2019-03-16T02:07:05.405Z,73
2019-03-16T02:08:07.715Z,73
2019-03-16T02:09:09.744Z,73
2019-03-16T02:10:12.455Z,73
2019-03-16T02:11:14.469Z,73
2019-03-16T02:12:16.595Z,73
2019-03-16T02:13:18.638Z,72
2019-03-16T02:14:20.668Z,73
2019-03-16T02:15:23.569Z,73
2019-03-16T02:16:25.594Z,73
2019-03-16T02:17:27.626Z,72
2019-03-16T02:18:29.732Z,73
2019-03-16T02:19:31.754Z,72
2019-03-16T02:20:37.538Z,72
2019-03-16T02:21:40.589Z,72
2019-03-16T02:22:42.820Z,71
2019-03-16T02:23:44.900Z,72
2019-03-16T02:24:47.299Z,73
2019-03-16T02:25:49.333Z,73
2019-03-16T02:26:51.437Z,73
2019-03-16T02:27:53.487Z,72
2019-03-16T02:28:56.068Z,72
2019-03-16T02:29:58.099Z,72
2019-03-16T02:31:00.141Z,73
2019-03-16T02:32:02.174Z,73
2019-03-16T02:33:14.622Z,72
2019-03-16T02:34:16.674Z,72
2019-03-16T02:35:18.983Z,72
2019-03-16T02:36:21.310Z,72
2019-03-16T02:37:23.751Z,72
2019-03-16T02:38:26.093Z,72
2019-03-16T02:39:28.422Z,72
2019-03-16T02:40:31.098Z,72
2019-03-16T02:41:33.144Z,72
2019-03-16T02:42:35.189Z,72
2019-03-16T02:43:38.300Z,72
2019-03-16T02:44:40.943Z,72
2019-03-16T02:45:43.051Z,72
2019-03-16T02:46:45.497Z,72
2019-03-16T02:47:47.919Z,72
2019-03-16T02:48:50.247Z,72
2019-03-16T02:49:52.289Z,72
2019-03-16T02:50:54.604Z,72
2019-03-16T02:51:56.915Z,72
2019-03-16T02:52:59.388Z,72
2019-03-16T02:54:01.802Z,72
2019-03-16T02:55:03.870Z,73
2019-03-16T02:56:06.327Z,73
2019-03-16T02:57:08.635Z,73
2019-03-16T02:58:10.787Z,72
2019-03-16T02:59:12.849Z,72
2019-03-16T03:00:15.356Z,72
2019-03-16T03:01:17.546Z,71
2019-03-16T03:02:20.053Z,72
2019-03-16T03:03:31.003Z,72
2019-03-16T03:04:33.072Z,72
2019-03-16T03:05:35.526Z,72
2019-03-16T03:06:37.844Z,71
2019-03-16T03:07:40.562Z,72
2019-03-16T03:08:42.642Z,72
2019-03-16T03:09:44.986Z,72
2019-03-16T03:10:47.693Z,72
2019-03-16T03:11:50.033Z,73
2019-03-16T03:12:52.823Z,72
2019-03-16T03:13:54.882Z,71
2019-03-16T03:14:56.938Z,71
2019-03-16T03:15:59.574Z,71
2019-03-16T03:17:02.005Z,72
2019-03-16T03:18:04.753Z,71
2019-03-16T03:19:06.969Z,72
2019-03-16T03:20:09.036Z,72
2019-03-16T03:21:11.404Z,71
2019-03-16T03:22:14.151Z,72
2019-03-16T03:23:16.377Z,72
2019-03-16T03:24:18.755Z,72
2019-03-16T03:25:21.573Z,72
2019-03-16T03:26:23.898Z,72
2019-03-16T03:27:25.983Z,71
2019-03-16T03:28:28.740Z,72
2019-03-16T03:29:31.190Z,71
2019-03-16T03:30:33.422Z,71
2019-03-16T03:31:35.998Z,71
2019-03-16T03:32:38.451Z,72
2019-03-16T03:34:04.004Z,72
2019-03-16T03:35:06.745Z,71
2019-03-16T03:36:08.814Z,72
2019-03-16T03:37:11.115Z,71
2019-03-16T03:38:13.430Z,72
2019-03-16T03:39:15.751Z,72
2019-03-16T03:40:18.533Z,72
2019-03-16T03:41:20.635Z,72
2019-03-16T03:42:22.732Z,72
2019-03-16T03:43:25.066Z,72
2019-03-16T03:44:27.377Z,72
2019-03-16T03:45:30.051Z,71
2019-03-16T03:46:33.547Z,71
2019-03-16T03:47:36.274Z,72
2019-03-16T03:48:38.340Z,72
2019-03-16T03:49:40.377Z,72
2019-03-16T03:50:42.419Z,72
2019-03-16T03:51:45.247Z,72
2019-03-16T03:52:47.703Z,72
2019-03-16T03:53:50.128Z,73
2019-03-16T03:54:52.178Z,72
2019-03-16T03:55:55.265Z,72
2019-03-16T03:56:57.662Z,72
2019-03-16T03:57:59.718Z,72
2019-03-16T03:59:02.105Z,73
2019-03-16T04:00:04.814Z,72
2019-03-16T04:01:07.159Z,72
2019-03-16T04:02:10.256Z,72
2019-03-16T04:03:12.280Z,73
2019-03-16T04:04:17.077Z,72
2019-03-16T04:05:19.135Z,72
2019-03-16T04:06:21.806Z,72
2019-03-16T04:07:24.125Z,72
2019-03-16T04:08:26.179Z,72
2019-03-16T04:09:28.485Z,72
2019-03-16T04:10:31.217Z,72
2019-03-16T04:11:33.288Z,72
2019-03-16T04:12:36.282Z,73
2019-03-16T04:13:39.318Z,72
2019-03-16T04:14:41.363Z,72
2019-03-16T04:15:44.091Z,72
2019-03-16T04:16:46.165Z,72
2019-03-16T04:17:48.199Z,72
2019-03-16T04:18:52.873Z,72
2019-03-16T04:19:55.522Z,72
2019-03-16T04:20:57.859Z,72
2019-03-16T04:21:59.908Z,72
2019-03-16T04:23:02.895Z,72
2019-03-16T04:24:05.520Z,73
2019-03-16T04:25:07.573Z,73
2019-03-16T04:26:10.178Z,73
2019-03-16T04:27:17.693Z,73
2019-03-16T04:28:19.749Z,73
2019-03-16T04:29:21.799Z,73
2019-03-16T04:30:24.129Z,73
2019-03-16T04:31:26.194Z,73
2019-03-16T04:32:28.549Z,73
2019-03-16T04:33:30.569Z,74
2019-03-16T04:34:32.621Z,74
2019-03-16T04:35:34.670Z,73
2019-03-16T04:36:37.104Z,73
2019-03-16T04:37:39.471Z,73
2019-03-16T04:38:41.779Z,73
2019-03-16T04:39:43.921Z,74
2019-03-16T04:40:45.948Z,73
2019-03-16T04:41:48.367Z,73
2019-03-16T04:42:50.475Z,73
2019-03-16T04:43:52.794Z,74
2019-03-16T04:44:54.830Z,74
2019-03-16T04:45:56.943Z,74
2019-03-16T04:46:58.981Z,74
2019-03-16T04:48:01.008Z,74
2019-03-16T04:49:03.046Z,74
2019-03-16T04:50:05.070Z,74
2019-03-16T04:51:07.414Z,74
2019-03-16T04:52:09.823Z,74
2019-03-16T04:53:11.848Z,74
2019-03-16T04:54:13.899Z,74
2019-03-16T04:55:16.058Z,74
2019-03-16T04:56:18.105Z,75
2019-03-16T04:57:20.178Z,75
2019-03-16T04:58:22.521Z,74
2019-03-16T04:59:24.646Z,74
2019-03-16T05:00:27.235Z,74
2019-03-16T05:01:29.273Z,74
2019-03-16T05:02:31.300Z,74
2019-03-16T05:03:33.338Z,74
2019-03-16T05:04:43.668Z,74
2019-03-16T05:05:45.704Z,74
2019-03-16T05:06:47.723Z,74
2019-03-16T05:07:49.770Z,74
2019-03-16T05:08:51.833Z,74
2019-03-16T05:09:54.161Z,75
2019-03-16T05:10:56.203Z,74
2019-03-16T05:11:58.293Z,74
2019-03-16T05:13:00.322Z,74
2019-03-16T05:14:02.352Z,74
2019-03-16T05:15:04.390Z,74
2019-03-16T05:16:06.404Z,74
2019-03-16T05:17:08.444Z,74
2019-03-16T05:18:10.561Z,74
2019-03-16T05:19:12.580Z,74
2019-03-16T05:20:14.691Z,74
2019-03-16T05:21:16.722Z,74
2019-03-16T05:22:18.748Z,74
2019-03-16T05:23:20.863Z,74
2019-03-16T05:24:23.003Z,74
2019-03-16T05:25:25.383Z,74
2019-03-16T05:26:27.434Z,73
2019-03-16T05:27:29.477Z,74
2019-03-16T05:28:31.787Z,74
2019-03-16T05:29:34.140Z,74
2019-03-16T05:30:36.174Z,73
2019-03-16T05:31:38.587Z,73
2019-03-16T05:32:40.619Z,73
2019-03-16T05:33:42.656Z,73
2019-03-16T05:34:57.932Z,73
2019-03-16T05:36:01.026Z,73
2019-03-16T05:37:03.067Z,73
2019-03-16T05:38:05.775Z,73
2019-03-16T05:39:08.099Z,73
2019-03-16T05:40:10.418Z,73
2019-03-16T05:41:12.454Z,73
2019-03-16T05:42:14.481Z,73
2019-03-16T05:43:16.521Z,73
2019-03-16T05:44:18.924Z,74
2019-03-16T05:45:20.959Z,73
2019-03-16T05:46:22.986Z,73
2019-03-16T05:47:25.022Z,73
2019-03-16T05:48:27.036Z,73
2019-03-16T05:49:29.101Z,74
2019-03-16T05:50:31.121Z,74
2019-03-16T05:51:33.427Z,74
2019-03-16T05:52:35.474Z,74
2019-03-16T05:53:37.892Z,74
2019-03-16T05:54:39.928Z,74
2019-03-16T05:55:41.969Z,74
2019-03-16T05:56:44.391Z,74
2019-03-16T05:57:46.489Z,74
2019-03-16T05:58:48.819Z,74
2019-03-16T05:59:50.852Z,74
2019-03-16T06:00:52.877Z,74
2019-03-16T06:01:54.912Z,74
2019-03-16T06:02:56.937Z,74
2019-03-16T06:03:58.965Z,74
2019-03-16T06:05:12.566Z,74
2019-03-16T06:06:14.599Z,74
2019-03-16T06:07:16.624Z,74
2019-03-16T06:08:18.649Z,74
2019-03-16T06:09:20.683Z,74
2019-03-16T06:10:22.796Z,74
2019-03-16T06:11:24.819Z,74
2019-03-16T06:12:26.847Z,74
2019-03-16T06:13:29.287Z,74
2019-03-16T06:14:31.302Z,74
2019-03-16T06:15:33.334Z,74
2019-03-16T06:16:35.367Z,74
2019-03-16T06:17:37.388Z,74
2019-03-16T06:18:39.420Z,74
2019-03-16T06:19:41.755Z,74
2019-03-16T06:20:43.788Z,73
2019-03-16T06:21:46.097Z,74
2019-03-16T06:22:48.155Z,74
2019-03-16T06:23:50.266Z,74
2019-03-16T06:24:52.583Z,74
2019-03-16T06:25:54.622Z,74
2019-03-16T06:26:56.937Z,73
2019-03-16T06:27:59.354Z,74
2019-03-16T06:29:01.388Z,73
2019-03-16T06:30:03.433Z,73
2019-03-16T06:31:05.448Z,73
2019-03-16T06:32:07.790Z,73
2019-03-16T06:33:09.820Z,73
2019-03-16T06:34:11.856Z,73
2019-03-16T06:35:30.150Z,73
2019-03-16T06:36:32.184Z,73
2019-03-16T06:37:34.210Z,73
2019-03-16T06:38:36.255Z,73
2019-03-16T06:39:38.866Z,73
2019-03-16T06:40:41.182Z,73
2019-03-16T06:41:44.425Z,73
2019-03-16T06:42:46.455Z,73
2019-03-16T06:43:48.781Z,73
2019-03-16T06:44:51.172Z,73
2019-03-16T06:45:53.492Z,73
2019-03-16T06:46:55.806Z,73
2019-03-16T06:47:58.121Z,73
2019-03-16T06:49:00.263Z,73
2019-03-16T06:50:02.573Z,72
2019-03-16T06:51:04.616Z,73
2019-03-16T06:52:06.635Z,73
2019-03-16T06:53:08.681Z,72
2019-03-16T06:54:10.709Z,73
2019-03-16T06:55:12.756Z,73
2019-03-16T06:56:14.870Z,73
2019-03-16T06:57:16.914Z,73
2019-03-16T06:58:18.951Z,72
2019-03-16T06:59:20.979Z,73
2019-03-16T07:00:23.008Z,72
2019-03-16T07:01:25.423Z,72
2019-03-16T07:02:27.446Z,72
2019-03-16T07:03:29.476Z,72
2019-03-16T07:04:31.896Z,72
2019-03-16T07:05:39.720Z,72
2019-03-16T07:06:42.031Z,72
2019-03-16T07:07:44.070Z,72
2019-03-16T07:08:46.099Z,72
2019-03-16T07:09:48.132Z,72
2019-03-16T07:10:50.166Z,72
2019-03-16T07:11:52.184Z,72
2019-03-16T07:12:54.214Z,72
2019-03-16T07:13:56.249Z,72
2019-03-16T07:14:58.278Z,72
2019-03-16T07:16:00.372Z,73
2019-03-16T07:17:03.444Z,72
2019-03-16T07:18:05.476Z,72
2019-03-16T07:19:07.499Z,72
2019-03-16T07:20:09.557Z,72
2019-03-16T07:21:11.575Z,72
2019-03-16T07:22:13.626Z,72
2019-03-16T07:23:16.476Z,72
2019-03-16T07:24:18.902Z,72
2019-03-16T07:25:21.311Z,72
2019-03-16T07:26:23.345Z,72
2019-03-16T07:27:27.376Z,72
2019-03-16T07:28:29.413Z,72
2019-03-16T07:29:31.819Z,72
2019-03-16T07:30:37.446Z,72
2019-03-16T07:31:39.521Z,72
2019-03-16T07:32:41.544Z,72
2019-03-16T07:33:43.584Z,72
2019-03-16T07:34:45.886Z,72
2019-03-16T07:35:47.922Z,72
2019-03-16T07:36:49.964Z,72
2019-03-16T07:37:52.387Z,72
2019-03-16T07:38:54.702Z,72
2019-03-16T07:39:56.742Z,72
2019-03-16T07:40:58.809Z,72
2019-03-16T07:42:01.647Z,72
2019-03-16T07:43:03.678Z,72
2019-03-16T07:44:05.714Z,72
2019-03-16T07:45:09.876Z,72
2019-03-16T07:46:11.914Z,72
2019-03-16T07:47:13.954Z,72
2019-03-16T07:48:15.984Z,73
2019-03-16T07:49:18.033Z,73
2019-03-16T07:50:20.069Z,73
2019-03-16T07:51:22.117Z,73
2019-03-16T07:52:24.139Z,72
2019-03-16T07:53:26.188Z,72
2019-03-16T07:54:31.706Z,72
2019-03-16T07:55:33.738Z,72
2019-03-16T07:56:35.770Z,72
2019-03-16T07:57:42.075Z,72
2019-03-16T07:58:44.673Z,72
2019-03-16T07:59:46.701Z,71
2019-03-16T08:00:49.125Z,72
2019-03-16T08:01:51.785Z,72
2019-03-16T08:02:54.216Z,71
2019-03-16T08:03:56.237Z,71
2019-03-16T08:04:58.566Z,72
2019-03-16T08:06:00.613Z,71
2019-03-16T08:07:02.645Z,71
2019-03-16T08:08:04.884Z,71
2019-03-16T08:09:07.736Z,72
2019-03-16T08:10:09.969Z,71
2019-03-16T08:11:12.574Z,71
2019-03-16T08:12:14.897Z,71
2019-03-16T08:13:16.940Z,71
2019-03-16T08:14:19.053Z,71
2019-03-16T08:15:21.122Z,71
2019-03-16T08:16:23.454Z,71
2019-03-16T08:17:25.567Z,71
2019-03-16T08:18:27.611Z,71
2019-03-16T08:19:29.931Z,71
2019-03-16T08:20:32.919Z,71
2019-03-16T08:21:34.954Z,71
2019-03-16T08:22:36.984Z,72
2019-03-16T08:23:39.035Z,71
2019-03-16T08:24:41.102Z,70
2019-03-16T08:25:43.139Z,70
2019-03-16T08:26:45.160Z,70
2019-03-16T08:27:55.503Z,71
2019-03-16T08:29:00.232Z,70
2019-03-16T08:30:02.939Z,70
2019-03-16T08:31:04.981Z,70
2019-03-16T08:32:07.401Z,70
2019-03-16T08:33:09.435Z,71
2019-03-16T08:34:11.470Z,70
2019-03-16T08:35:13.525Z,70
2019-03-16T08:36:15.541Z,70
2019-03-16T08:37:17.587Z,70
2019-03-16T08:38:19.907Z,71
2019-03-16T08:39:22.064Z,70
2019-03-16T08:40:24.143Z,70
2019-03-16T08:41:26.180Z,70
2019-03-16T08:42:28.220Z,69
2019-03-16T08:43:30.641Z,70
2019-03-16T08:44:32.668Z,70
2019-03-16T08:45:34.710Z,70
2019-03-16T08:46:36.739Z,69
2019-03-16T08:47:38.834Z,69
2019-03-16T08:48:40.915Z,69
2019-03-16T08:49:42.949Z,69
2019-03-16T08:50:45.038Z,70
2019-03-16T08:51:47.247Z,69
2019-03-16T08:52:49.278Z,69
2019-03-16T08:53:51.329Z,69
2019-03-16T08:54:53.377Z,69
2019-03-16T08:55:55.408Z,70
2019-03-16T08:56:57.455Z,69
2019-03-16T08:58:07.219Z,69
2019-03-16T08:59:09.262Z,68
2019-03-16T09:00:11.355Z,68
2019-03-16T09:01:13.468Z,69
2019-03-16T09:02:15.500Z,68
2019-03-16T09:03:17.534Z,69
2019-03-16T09:04:19.888Z,68
2019-03-16T09:05:21.963Z,68
2019-03-16T09:06:24.001Z,68
2019-03-16T09:07:26.113Z,68
2019-03-16T09:08:28.173Z,67
2019-03-16T09:09:31.082Z,67
2019-03-16T09:10:33.127Z,67
2019-03-16T09:11:35.313Z,67
2019-03-16T09:12:37.343Z,67
2019-03-16T09:13:39.404Z,67
2019-03-16T09:14:41.440Z,68
2019-03-16T09:15:43.476Z,67
2019-03-16T09:16:45.512Z,67
2019-03-16T09:17:47.676Z,67
2019-03-16T09:18:49.760Z,66
2019-03-16T09:19:51.792Z,66
2019-03-16T09:20:53.826Z,66
2019-03-16T09:21:55.869Z,66
2019-03-16T09:22:58.813Z,66
2019-03-16T09:24:00.878Z,66
2019-03-16T09:25:03.207Z,65
2019-03-16T09:26:05.622Z,65
2019-03-16T09:27:08.011Z,65
2019-03-16T09:28:19.858Z,66
2019-03-16T09:29:21.893Z,65
2019-03-16T09:30:23.929Z,65
2019-03-16T09:31:25.963Z,64
2019-03-16T09:32:28.004Z,64
2019-03-16T09:33:30.064Z,64
2019-03-16T09:34:32.129Z,64
2019-03-16T09:35:34.164Z,64
2019-03-16T09:36:36.495Z,64
2019-03-16T09:37:38.566Z,64
2019-03-16T09:38:40.604Z,64
2019-03-16T09:39:42.949Z,63
2019-03-16T09:40:44.978Z,63
2019-03-16T09:41:47.032Z,63
2019-03-16T09:42:49.058Z,63
2019-03-16T09:43:51.102Z,63
2019-03-16T09:44:53.167Z,64
2019-03-16T09:45:55.213Z,64
2019-03-16T09:46:57.271Z,64
2019-03-16T09:47:59.339Z,64
2019-03-16T09:49:01.375Z,63
2019-03-16T09:50:03.418Z,64
2019-03-16T09:51:05.474Z,63
2019-03-16T09:52:07.505Z,63
2019-03-16T09:53:09.555Z,63
2019-03-16T09:54:11.583Z,63
2019-03-16T09:55:13.991Z,64
2019-03-16T09:56:16.050Z,63
2019-03-16T09:57:18.095Z,64
2019-03-16T09:58:32.725Z,63
2019-03-16T10:00:06.917Z,64
2019-03-16T10:01:09.057Z,64
2019-03-16T10:02:11.178Z,63
2019-03-16T10:03:13.314Z,62
2019-03-16T10:04:15.739Z,63
2019-03-16T10:05:17.866Z,63
2019-03-16T10:06:20.302Z,63
2019-03-16T10:07:22.433Z,63
2019-03-16T10:08:24.824Z,63
2019-03-16T10:09:27.229Z,63
2019-03-16T10:10:29.951Z,64
2019-03-16T10:11:32.067Z,63
2019-03-16T10:12:34.200Z,63
2019-03-16T10:13:36.330Z,63
2019-03-16T10:14:38.463Z,63
2019-03-16T10:15:40.982Z,63
2019-03-16T10:16:43.164Z,63
2019-03-16T10:17:45.356Z,63
2019-03-16T10:18:47.476Z,63
2019-03-16T10:19:49.637Z,63
2019-03-16T10:20:51.791Z,63
2019-03-16T10:21:53.927Z,63
2019-03-16T10:22:56.347Z,64
2019-03-16T10:23:58.471Z,64
2019-03-16T10:25:01.055Z,63
2019-03-16T10:26:03.476Z,63
2019-03-16T10:27:05.596Z,63
2019-03-16T10:28:07.713Z,62
2019-03-16T10:29:09.904Z,62
2019-03-16T10:30:12.379Z,63
2019-03-16T10:31:14.434Z,63
2019-03-16T10:32:16.546Z,63
2019-03-16T10:33:22.673Z,63
2019-03-16T10:34:26.453Z,63
2019-03-16T10:35:28.540Z,63
2019-03-16T10:36:30.598Z,63
2019-03-16T10:37:32.636Z,63
2019-03-16T10:38:34.680Z,64
2019-03-16T10:39:36.706Z,63
2019-03-16T10:40:38.839Z,63
2019-03-16T10:41:40.868Z,64
2019-03-16T10:42:42.912Z,62
2019-03-16T10:43:44.984Z,63
2019-03-16T10:44:47.012Z,62
2019-03-16T10:45:49.336Z,61
2019-03-16T10:46:51.371Z,61
2019-03-16T10:47:53.503Z,61
2019-03-16T10:48:55.524Z,62
2019-03-16T10:49:57.967Z,61
2019-03-16T10:51:03.651Z,61
2019-03-16T10:52:07.165Z,60
2019-03-16T10:53:09.229Z,60
2019-03-16T10:54:11.555Z,61
2019-03-16T10:55:13.631Z,61
2019-03-16T10:56:15.682Z,60
2019-03-16T10:57:18.021Z,61
2019-03-16T10:58:20.063Z,62
2019-03-16T10:59:22.111Z,61
2019-03-16T11:00:24.198Z,61
2019-03-16T11:01:26.231Z,61
2019-03-16T11:02:28.295Z,61
2019-03-16T11:03:30.328Z,61
2019-03-16T11:04:32.377Z,60
2019-03-16T11:05:34.501Z,61
2019-03-16T11:06:36.545Z,61
2019-03-16T11:07:38.583Z,61
2019-03-16T11:08:40.641Z,62
2019-03-16T11:09:42.752Z,62
2019-03-16T11:10:44.885Z,63
2019-03-16T11:11:47.207Z,62
2019-03-16T11:12:49.261Z,63
2019-03-16T11:13:51.355Z,63
2019-03-16T11:14:53.378Z,63
2019-03-16T11:15:55.429Z,63
2019-03-16T11:16:57.478Z,63
2019-03-16T11:17:59.517Z,64
2019-03-16T11:19:01.639Z,64
2019-03-16T11:20:04.090Z,64
2019-03-16T11:21:06.139Z,64
2019-03-16T11:22:08.163Z,65
2019-03-16T11:23:10.491Z,64
2019-03-16T11:24:12.529Z,65
2019-03-16T11:25:14.559Z,64
2019-03-16T11:26:16.603Z,64
2019-03-16T11:27:18.650Z,64
2019-03-16T11:28:20.706Z,64
2019-03-16T11:29:23.134Z,64
2019-03-16T11:30:25.174Z,63
2019-03-16T11:31:27.194Z,62
2019-03-16T11:32:29.228Z,62
2019-03-16T11:33:31.266Z,62
2019-03-16T11:34:33.315Z,63
2019-03-16T11:35:35.361Z,62
2019-03-16T11:36:38.105Z,62
2019-03-16T11:37:40.139Z,63
2019-03-16T11:38:42.493Z,62
2019-03-16T11:39:44.805Z,63
2019-03-16T11:40:46.859Z,63
2019-03-16T11:41:48.898Z,64
2019-03-16T11:42:51.264Z,64
2019-03-16T11:43:53.305Z,65
2019-03-16T11:44:55.642Z,65
2019-03-16T11:45:57.692Z,65
2019-03-16T11:46:59.724Z,66
2019-03-16T11:48:01.775Z,66
2019-03-16T11:49:04.193Z,66
2019-03-16T11:50:06.506Z,66
2019-03-16T11:51:08.552Z,66
2019-03-16T11:52:10.609Z,66
2019-03-16T11:53:12.636Z,67
2019-03-16T11:54:14.717Z,67
2019-03-16T11:55:16.749Z,67
2019-03-16T11:56:19.798Z,68
2019-03-16T11:57:21.826Z,68
2019-03-16T11:58:23.869Z,67
2019-03-16T11:59:25.910Z,67
2019-03-16T12:00:27.990Z,67
2019-03-16T12:01:30.052Z,68
2019-03-16T12:02:32.465Z,68
2019-03-16T12:03:34.800Z,68
2019-03-16T12:04:37.512Z,69
2019-03-16T12:05:39.559Z,70
2019-03-16T12:06:41.626Z,70
2019-03-16T12:07:43.668Z,70
2019-03-16T12:08:45.709Z,70
2019-03-16T12:09:47.741Z,70
2019-03-16T12:10:50.115Z,70
2019-03-16T12:11:52.477Z,70
2019-03-16T12:12:54.510Z,70
2019-03-16T12:13:56.535Z,71
2019-03-16T12:14:58.578Z,72
2019-03-16T12:16:00.610Z,72
2019-03-16T12:17:02.643Z,72
2019-03-16T12:18:04.716Z,72
2019-03-16T12:19:06.758Z,73
2019-03-16T12:20:08.778Z,73
2019-03-16T12:21:11.129Z,73
2019-03-16T12:22:13.447Z,74
2019-03-16T12:23:15.475Z,73
2019-03-16T12:24:17.510Z,73
2019-03-16T12:25:19.554Z,74
2019-03-16T12:26:21.597Z,75
2019-03-16T12:27:23.716Z,75
2019-03-16T12:28:25.770Z,75
2019-03-16T12:29:35.199Z,76
2019-03-16T12:30:37.252Z,76
2019-03-16T12:31:39.308Z,76
2019-03-16T12:32:41.352Z,76
2019-03-16T12:33:43.372Z,77
2019-03-16T12:34:45.452Z,77
2019-03-16T12:35:47.532Z,77
2019-03-16T12:36:49.579Z,76
2019-03-16T12:37:51.597Z,76
2019-03-16T12:38:53.912Z,77
2019-03-16T12:39:55.963Z,77
2019-03-16T12:40:58.000Z,77
2019-03-16T12:42:00.052Z,78
2019-03-16T12:43:02.092Z,78
2019-03-16T12:44:04.777Z,78
2019-03-16T12:45:07.156Z,79
2019-03-16T12:46:09.200Z,79
2019-03-16T12:47:11.526Z,79
2019-03-16T12:48:13.571Z,79
2019-03-16T12:49:15.616Z,80
2019-03-16T12:50:17.743Z,80
2019-03-16T12:51:20.605Z,79
2019-03-16T12:52:22.647Z,78
2019-03-16T12:53:24.667Z,78
2019-03-16T12:54:26.729Z,79
2019-03-16T12:55:28.795Z,79
2019-03-16T12:56:30.831Z,79
2019-03-16T12:57:33.035Z,79
2019-03-16T12:58:35.533Z,80
2019-03-16T12:59:48.361Z,80
2019-03-16T13:00:50.395Z,80
2019-03-16T13:01:52.506Z,81
2019-03-16T13:02:54.941Z,81
2019-03-16T13:03:56.992Z,80
2019-03-16T13:04:59.025Z,79
2019-03-16T13:06:01.099Z,81
2019-03-16T13:07:03.257Z,80
2019-03-16T13:08:05.291Z,79
2019-03-16T13:09:07.318Z,80
2019-03-16T13:10:09.432Z,81
2019-03-16T13:11:11.563Z,81
2019-03-16T13:12:13.596Z,81
2019-03-16T13:13:15.645Z,81
2019-03-16T13:14:17.683Z,81
2019-03-16T13:15:19.795Z,80
2019-03-16T13:16:21.839Z,80
2019-03-16T13:17:23.887Z,81
2019-03-16T13:18:25.975Z,81
2019-03-16T13:19:28.069Z,82
2019-03-16T13:20:30.118Z,81
2019-03-16T13:21:32.164Z,81
2019-03-16T13:22:34.211Z,81
2019-03-16T13:23:36.241Z,81
2019-03-16T13:24:38.270Z,81
2019-03-16T13:25:40.602Z,81
2019-03-16T13:26:42.662Z,81
2019-03-16T13:27:45.085Z,82
2019-03-16T13:28:47.133Z,82
2019-03-16T13:30:00.157Z,83
2019-03-16T13:31:02.267Z,83
2019-03-16T13:32:04.307Z,82
2019-03-16T13:33:06.402Z,83
2019-03-16T13:34:08.452Z,83
2019-03-16T13:35:10.516Z,82
2019-03-16T13:36:12.653Z,83
2019-03-16T13:37:14.742Z,83
2019-03-16T13:38:16.786Z,83
2019-03-16T13:39:18.888Z,83
2019-03-16T13:40:21.021Z,83
2019-03-16T13:41:23.059Z,83
2019-03-16T13:42:25.491Z,83
2019-03-16T13:43:27.676Z,82
2019-03-16T13:44:29.830Z,83
2019-03-16T13:45:31.935Z,83
2019-03-16T13:46:33.979Z,83
2019-03-16T13:47:36.011Z,83
2019-03-16T13:48:38.615Z,83
2019-03-16T13:49:40.655Z,83
2019-03-16T13:50:43.398Z,83
2019-03-16T13:51:45.889Z,83
2019-03-16T13:52:47.944Z,84
2019-03-16T13:53:50.009Z,84
2019-03-16T13:54:52.404Z,84
2019-03-16T13:55:55.825Z,83
2019-03-16T13:56:57.864Z,84
2019-03-16T13:57:59.936Z,84
2019-03-16T13:59:02.047Z,84
2019-03-16T14:00:13.263Z,84
2019-03-16T14:01:15.604Z,84
2019-03-16T14:02:18.919Z,84
2019-03-16T14:03:20.999Z,85
2019-03-16T14:04:23.040Z,84
2019-03-16T14:05:25.101Z,84
2019-03-16T14:06:27.689Z,84
2019-03-16T14:07:30.222Z,84
2019-03-16T14:08:32.554Z,85
2019-03-16T14:09:35.129Z,84
2019-03-16T14:10:37.978Z,85
2019-03-16T14:11:42.497Z,85
2019-03-16T14:12:44.571Z,85
2019-03-16T14:13:47.167Z,85
2019-03-16T14:14:49.989Z,85
2019-03-16T14:15:52.050Z,85
2019-03-16T14:16:54.092Z,85
2019-03-16T14:17:59.665Z,85
2019-03-16T14:19:01.734Z,86
2019-03-16T14:20:04.466Z,86
2019-03-16T14:21:06.508Z,86
2019-03-16T14:22:08.864Z,86
2019-03-16T14:23:11.741Z,86
2019-03-16T14:24:14.620Z,86
2019-03-16T14:25:16.649Z,86
2019-03-16T14:26:18.790Z,86
2019-03-16T14:27:28.342Z,86
2019-03-16T14:28:36.507Z,86
2019-03-16T14:29:38.579Z,86
2019-03-16T14:30:46.234Z,86
2019-03-16T14:31:48.607Z,86
2019-03-16T14:32:50.960Z,86
2019-03-16T14:33:53.314Z,86
2019-03-16T14:34:55.738Z,86
2019-03-16T14:35:58.839Z,86
2019-03-16T14:37:01.015Z,86
2019-03-16T14:38:03.074Z,86
2019-03-16T14:39:05.171Z,86
2019-03-16T14:40:07.396Z,86
2019-03-16T14:41:09.535Z,86
2019-03-16T14:42:11.587Z,86
2019-03-16T14:43:14.009Z,86
2019-03-16T14:44:16.085Z,87
2019-03-16T14:45:18.195Z,87
2019-03-16T14:46:20.432Z,87
2019-03-16T14:47:22.559Z,87
2019-03-16T14:48:26.196Z,87
2019-03-16T14:49:29.742Z,87
2019-03-16T14:50:32.159Z,87
2019-03-16T14:51:34.177Z,87
2019-03-16T14:52:36.214Z,87